Time;durP1;ratioP1;P1;durP2;ratioP2;P2;SDS_P1;SDS_P2;PMS_P1;PMS_P2;Temp;Humidity;BMP_temperature;BMP_pressure;BME280_temperature;BME280_humidity;BME280_pressure;Samples;Min_cycle;Max_cycle;Signal;HPM_P1;HPM_P2
2023/12/28 00:02:03;;;;;;;2.42;1.63;;;8.70;99.90;;;;;;4949221;28;20121;-75
2023/12/28 00:04:29;;;;;;;5.80;1.90;;;8.80;99.90;;;;;;4966823;28;20387;-75
2023/12/28 00:06:55;;;;;;;6.82;1.30;;;8.80;99.90;;;;;;4948952;28;20112;-75
2023/12/28 00:09:20;;;;;;;8.40;3.38;;;8.80;99.90;;;;;;4981428;28;20402;-76
2023/12/28 00:11:46;;;;;;;5.28;1.70;;;8.80;99.90;;;;;;4966974;28;20118;-76
2023/12/28 00:14:11;;;;;;;7.50;1.75;;;8.90;99.90;;;;;;4948126;28;20043;-75
2023/12/28 00:16:37;;;;;;;3.97;1.95;;;8.90;99.90;;;;;;4965938;28;20090;-75
2023/12/28 00:19:04;;;;;;;12.57;2.35;;;9.00;99.90;;;;;;4948738;28;20065;-75
2023/12/28 00:21:30;;;;;;;6.22;1.83;;;8.90;99.90;;;;;;4949091;28;20050;-75
2023/12/28 00:23:56;;;;;;;2.65;1.25;;;8.90;99.90;;;;;;4965669;28;20042;-76
2023/12/28 00:26:22;;;;;;;5.75;1.67;;;8.90;99.90;;;;;;4966672;28;20074;-76
2023/12/28 00:28:48;;;;;;;8.07;1.30;;;8.90;99.90;;;;;;4964232;28;20038;-75
2023/12/28 00:31:14;;;;;;;4.70;1.80;;;9.00;99.90;;;;;;4980490;28;20046;-75
2023/12/28 00:33:39;;;;;;;11.60;2.25;;;9.00;99.90;;;;;;4947887;28;20058;-75
2023/12/28 00:36:05;;;;;;;8.35;2.28;;;9.00;99.90;;;;;;4980330;28;20059;-76
2023/12/28 00:38:30;;;;;;;10.77;2.20;;;8.90;99.90;;;;;;4964391;28;20482;-75
2023/12/28 00:40:57;;;;;;;7.80;1.77;;;9.00;99.90;;;;;;4948424;28;20204;-76
2023/12/28 00:43:23;;;;;;;2.33;1.42;;;8.90;99.90;;;;;;4965119;28;20069;-75
2023/12/28 00:45:48;;;;;;;6.88;2.83;;;8.90;99.90;;;;;;4966278;28;20039;-75
2023/12/28 00:48:14;;;;;;;9.07;2.53;;;8.90;99.90;;;;;;4956395;28;20038;-75
2023/12/28 00:50:40;;;;;;;3.65;1.73;;;8.90;99.90;;;;;;4966033;28;20508;-76
2023/12/28 00:53:05;;;;;;;7.03;2.00;;;8.90;99.90;;;;;;4947012;28;20061;-75
2023/12/28 00:55:31;;;;;;;6.28;1.55;;;8.90;99.90;;;;;;4965659;28;20042;-76
2023/12/28 00:57:56;;;;;;;3.67;1.92;;;8.90;99.90;;;;;;4964623;28;20062;-76
2023/12/28 01:00:22;;;;;;;7.28;2.20;;;8.80;99.90;;;;;;4980278;28;20039;-76
2023/12/28 01:02:49;;;;;;;7.28;2.15;;;8.80;99.90;;;;;;4981280;28;20683;-75
2023/12/28 01:05:14;;;;;;;11.93;2.85;;;8.80;99.90;;;;;;4948174;28;20047;-75
2023/12/28 01:07:40;;;;;;;4.10;2.05;;;8.80;99.90;;;;;;4965615;28;20141;-75
2023/12/28 01:10:06;;;;;;;8.40;3.40;;;8.80;99.90;;;;;;4947526;28;20101;-75
2023/12/28 01:12:32;;;;;;;7.72;2.25;;;8.70;99.90;;;;;;4948125;28;20054;-75
2023/12/28 01:14:57;;;;;;;10.35;3.42;;;8.80;99.90;;;;;;4946718;28;20131;-75
2023/12/28 01:17:23;;;;;;;3.40;2.00;;;8.70;99.90;;;;;;4965275;28;20047;-75
2023/12/28 01:19:48;;;;;;;5.90;2.40;;;8.70;99.90;;;;;;4948879;28;20046;-75
2023/12/28 01:22:14;;;;;;;6.47;1.50;;;8.70;99.90;;;;;;4964729;28;20097;-76
2023/12/28 01:24:40;;;;;;;7.85;2.22;;;8.70;99.90;;;;;;4965089;28;20047;-75
2023/12/28 01:27:06;;;;;;;11.95;2.20;;;8.70;99.90;;;;;;4965045;28;20078;-75
2023/12/28 01:29:32;;;;;;;5.43;1.83;;;8.70;99.90;;;;;;4964591;28;20050;-76
2023/12/28 01:31:58;;;;;;;15.57;2.92;;;8.70;99.90;;;;;;4964613;28;20039;-75
2023/12/28 01:34:23;;;;;;;9.55;2.78;;;8.70;99.90;;;;;;4964964;28;20043;-75
2023/12/28 01:36:49;;;;;;;7.03;2.10;;;8.70;99.90;;;;;;4965833;28;20035;-75
2023/12/28 01:39:15;;;;;;;6.72;3.00;;;8.70;99.90;;;;;;4964963;28;20046;-75
2023/12/28 01:41:41;;;;;;;5.50;2.17;;;8.70;99.90;;;;;;4964844;28;20038;-76
2023/12/28 01:44:06;;;;;;;3.63;2.53;;;8.70;99.90;;;;;;4963797;28;20097;-76
2023/12/28 01:46:33;;;;;;;3.33;1.85;;;8.70;99.90;;;;;;4947828;28;20655;-75
2023/12/28 01:48:59;;;;;;;5.50;2.10;;;8.70;99.90;;;;;;4964539;28;20133;-76
2023/12/28 01:51:25;;;;;;;5.57;1.52;;;8.80;99.90;;;;;;4965067;28;20126;-76
2023/12/28 01:53:52;;;;;;;10.15;2.22;;;8.80;99.90;;;;;;4964578;28;20490;-76
2023/12/28 01:56:19;;;;;;;2.47;1.60;;;8.80;99.90;;;;;;4965309;28;20047;-76
2023/12/28 01:58:48;;;;;;;4.68;1.75;;;8.80;99.90;;;;;;4963935;28;20089;-76
2023/12/28 02:01:13;;;;;;;23.73;2.63;;;8.90;99.90;;;;;;5032778;23;20050;-75
2023/12/28 02:03:39;;;;;;;14.68;2.35;;;8.90;99.90;;;;;;4991999;28;20042;-75
2023/12/28 02:06:07;;;;;;;4.60;1.75;;;8.90;99.90;;;;;;5003517;28;20384;-75
2023/12/28 02:08:32;;;;;;;5.93;2.33;;;8.90;99.90;;;;;;4994938;28;20516;-75
2023/12/28 02:10:58;;;;;;;6.50;2.63;;;8.90;99.90;;;;;;5002006;28;20038;-75
2023/12/28 02:13:25;;;;;;;3.88;1.55;;;8.90;99.90;;;;;;4990330;28;20046;-75
2023/12/28 02:15:55;;;;;;;10.77;2.75;;;8.90;99.90;;;;;;4986627;28;20400;-75
2023/12/28 02:18:27;;;;;;;10.45;2.63;;;8.90;99.90;;;;;;4991932;28;20042;-76
2023/12/28 02:20:54;;;;;;;7.05;1.88;;;8.90;99.90;;;;;;4984110;28;20042;-76
2023/12/28 02:23:20;;;;;;;9.18;2.17;;;9.00;99.90;;;;;;4994369;28;20208;-75
2023/12/28 02:25:45;;;;;;;6.82;2.90;;;9.00;99.90;;;;;;4991694;28;20125;-75
2023/12/28 02:28:11;;;;;;;5.20;1.98;;;9.00;99.90;;;;;;5001668;28;20400;-75
2023/12/28 02:30:37;;;;;;;10.45;2.80;;;9.10;99.90;;;;;;4996258;28;20034;-75
2023/12/28 02:33:12;;;;;;;4.97;1.73;;;9.10;99.90;;;;;;5004643;28;20060;-75
2023/12/28 02:35:51;;;;;;;6.35;1.80;;;9.10;99.90;;;;;;5038504;28;20046;-75
2023/12/28 02:38:18;;;;;;;7.75;2.10;;;9.20;99.90;;;;;;4998255;28;20109;-75
2023/12/28 02:40:45;;;;;;;10.05;1.65;;;9.20;99.90;;;;;;4991401;28;20109;-75
2023/12/28 02:43:12;;;;;;;7.65;1.85;;;9.20;99.90;;;;;;5005532;28;20029;-75
2023/12/28 02:45:38;;;;;;;13.70;2.08;;;9.30;99.90;;;;;;5000109;28;20461;-75
2023/12/28 02:48:05;;;;;;;4.05;2.25;;;9.30;99.90;;;;;;4986885;28;20042;-75
2023/12/28 02:50:31;;;;;;;4.82;1.88;;;9.30;99.90;;;;;;4987023;28;20042;-76
2023/12/28 02:52:57;;;;;;;7.20;1.58;;;9.30;99.90;;;;;;4986709;28;20050;-76
2023/12/28 02:55:23;;;;;;;9.68;2.25;;;9.40;99.90;;;;;;5037849;28;20485;-76
2023/12/28 02:57:50;;;;;;;7.10;1.30;;;9.40;99.90;;;;;;4999945;28;20400;-76
2023/12/28 03:00:16;;;;;;;3.58;0.88;;;9.40;99.90;;;;;;4995344;28;20049;-75
2023/12/28 03:02:42;;;;;;;3.28;2.20;;;9.40;99.90;;;;;;5006326;28;20076;-75
2023/12/28 03:05:08;;;;;;;13.00;2.70;;;9.40;99.90;;;;;;5004409;28;20058;-75
2023/12/28 03:07:34;;;;;;;11.00;1.67;;;9.40;99.90;;;;;;5004887;28;20037;-75
2023/12/28 03:10:00;;;;;;;2.83;1.85;;;9.40;99.90;;;;;;5001921;28;20136;-75
2023/12/28 03:12:25;;;;;;;11.43;2.25;;;9.50;99.90;;;;;;4986901;28;20142;-75
2023/12/28 03:14:52;;;;;;;7.35;1.55;;;9.40;99.90;;;;;;5000506;28;20482;-75
2023/12/28 03:17:18;;;;;;;12.00;1.80;;;9.40;99.90;;;;;;4996690;28;20311;-75
2023/12/28 03:19:43;;;;;;;4.60;1.02;;;9.40;99.90;;;;;;4985469;28;20481;-75
2023/12/28 03:22:09;;;;;;;5.07;1.35;;;9.40;99.90;;;;;;4998176;28;20849;-75
2023/12/28 03:24:37;;;;;;;10.57;2.33;;;9.40;99.90;;;;;;5018416;28;20489;-75
2023/12/28 03:27:03;;;;;;;3.83;1.60;;;9.40;99.90;;;;;;4990028;28;20046;-75
2023/12/28 03:29:28;;;;;;;5.32;2.03;;;9.50;99.90;;;;;;4986942;28;20053;-76
2023/12/28 03:31:54;;;;;;;3.28;1.40;;;9.50;99.90;;;;;;5002489;28;20041;-76
2023/12/28 03:34:20;;;;;;;5.00;1.42;;;9.50;99.90;;;;;;5027963;28;20487;-75
2023/12/28 03:36:45;;;;;;;1.15;0.80;;;9.50;99.90;;;;;;4995210;28;20439;-75
2023/12/28 03:39:11;;;;;;;4.97;1.90;;;9.50;99.90;;;;;;4998659;28;20505;-75
2023/12/28 03:41:36;;;;;;;5.28;1.90;;;9.50;99.90;;;;;;5001933;28;20519;-75
2023/12/28 03:44:02;;;;;;;4.57;1.80;;;9.50;99.90;;;;;;4994856;28;20035;-75
2023/12/28 03:46:27;;;;;;;6.63;2.88;;;9.50;99.90;;;;;;4996982;28;20039;-75
2023/12/28 03:48:53;;;;;;;7.03;1.30;;;9.50;99.90;;;;;;4985880;28;20039;-75
2023/12/28 03:51:19;;;;;;;5.78;1.38;;;9.50;99.90;;;;;;4986427;28;20053;-75
2023/12/28 03:53:45;;;;;;;3.83;1.48;;;9.50;99.90;;;;;;4993946;28;20399;-75
2023/12/28 03:56:25;;;;;;;5.80;1.52;;;9.50;99.90;;;;;;4984281;28;20041;-75
2023/12/28 03:58:52;;;;;;;3.60;1.17;;;9.50;99.90;;;;;;4983318;28;20067;-75
2023/12/28 04:01:21;;;;;;;10.32;1.92;;;9.50;99.90;;;;;;4988371;28;20099;-75
2023/12/28 04:03:47;;;;;;;5.50;2.03;;;9.50;99.90;;;;;;4994825;28;20087;-75
2023/12/28 04:06:13;;;;;;;4.10;1.20;;;9.60;99.90;;;;;;5004484;28;20495;-75
2023/12/28 04:08:40;;;;;;;9.30;2.13;;;9.60;99.90;;;;;;5037140;28;20088;-75
2023/12/28 04:11:05;;;;;;;2.42;0.95;;;9.60;99.90;;;;;;4985566;28;20060;-75
2023/12/28 04:13:31;;;;;;;9.52;1.33;;;9.60;99.90;;;;;;5001292;28;20064;-75
2023/12/28 04:15:56;;;;;;;4.88;1.60;;;9.60;99.90;;;;;;4984029;28;20452;-75
2023/12/28 04:18:22;;;;;;;4.53;1.60;;;9.60;99.90;;;;;;4985471;28;20053;-75
2023/12/28 04:20:48;;;;;;;6.93;1.70;;;9.60;99.90;;;;;;5017240;28;20469;-75
2023/12/28 04:23:14;;;;;;;5.45;1.10;;;9.70;99.90;;;;;;4985217;28;20460;-75
2023/12/28 04:25:40;;;;;;;8.40;1.77;;;9.70;99.90;;;;;;4985512;28;20049;-75
2023/12/28 04:28:06;;;;;;;11.68;1.55;;;9.70;99.90;;;;;;4998572;28;20443;-75
2023/12/28 04:30:32;;;;;;;23.70;1.88;;;9.70;99.90;;;;;;5002920;28;20405;-75
2023/12/28 04:32:57;;;;;;;4.47;1.98;;;9.80;99.90;;;;;;5033399;28;20037;-75
2023/12/28 04:35:23;;;;;;;7.28;2.65;;;9.80;99.90;;;;;;4985070;28;20119;-75
2023/12/28 04:37:49;;;;;;;13.70;2.33;;;9.80;99.90;;;;;;5003234;28;20041;-75
2023/12/28 04:40:14;;;;;;;7.13;3.05;;;9.90;99.90;;;;;;4984882;28;20481;-75
2023/12/28 04:42:40;;;;;;;7.60;1.85;;;9.90;99.90;;;;;;4982815;28;20056;-75
2023/12/28 04:45:07;;;;;;;12.43;2.22;;;9.90;99.90;;;;;;5000188;28;20168;-75
2023/12/28 04:47:32;;;;;;;8.20;3.08;;;9.90;99.90;;;;;;5003246;28;20308;-75
2023/12/28 04:49:58;;;;;;;14.90;2.47;;;9.90;99.90;;;;;;5035671;28;20041;-75
2023/12/28 04:52:24;;;;;;;6.35;1.40;;;9.90;99.90;;;;;;5003989;28;20524;-75
2023/12/28 04:54:50;;;;;;;5.15;2.33;;;9.90;99.90;;;;;;5036414;28;20385;-75
2023/12/28 04:57:16;;;;;;;7.13;2.78;;;9.90;99.90;;;;;;5002466;28;20085;-75
2023/12/28 04:59:41;;;;;;;2.30;1.23;;;9.80;99.90;;;;;;4998152;28;20156;-75
2023/12/28 05:02:07;;;;;;;6.05;1.45;;;9.90;99.90;;;;;;5003963;28;20050;-76
2023/12/28 05:04:37;;;;;;;3.50;1.45;;;9.90;99.90;;;;;;4973341;28;20065;-75
2023/12/28 05:07:03;;;;;;;4.90;2.00;;;9.90;99.90;;;;;;4985563;28;20042;-75
2023/12/28 05:09:28;;;;;;;6.20;2.17;;;9.90;99.90;;;;;;4987204;28;20762;-75
2023/12/28 05:11:54;;;;;;;11.57;2.75;;;9.80;99.90;;;;;;5002171;28;20038;-75
2023/12/28 05:14:19;;;;;;;10.25;2.47;;;9.80;99.90;;;;;;4986185;28;20061;-76
2023/12/28 05:16:45;;;;;;;8.90;1.90;;;9.80;99.90;;;;;;5000673;28;20074;-75
2023/12/28 05:19:10;;;;;;;10.15;2.15;;;9.80;99.90;;;;;;4989098;28;20506;-75
2023/12/28 05:21:36;;;;;;;10.30;2.80;;;9.70;99.90;;;;;;5031359;28;20404;-75
2023/12/28 05:24:02;;;;;;;7.88;2.30;;;9.80;99.90;;;;;;5034813;28;20736;-75
2023/12/28 05:26:27;;;;;;;7.05;2.00;;;9.80;99.90;;;;;;5035327;28;20056;-75
2023/12/28 05:28:53;;;;;;;4.75;2.28;;;9.80;99.90;;;;;;5002453;28;20053;-76
2023/12/28 05:31:18;;;;;;;10.20;3.20;;;9.80;99.90;;;;;;5002755;28;20449;-76
2023/12/28 05:33:44;;;;;;;5.88;1.77;;;9.70;99.90;;;;;;4998240;28;20109;-75
2023/12/28 05:36:09;;;;;;;12.27;2.85;;;9.70;99.90;;;;;;4993764;28;20338;-75
2023/12/28 05:38:35;;;;;;;4.07;2.17;;;9.70;99.90;;;;;;5032594;28;20034;-75
2023/12/28 05:41:00;;;;;;;6.00;2.67;;;9.60;99.90;;;;;;4990160;28;20117;-76
2023/12/28 05:43:26;;;;;;;4.28;1.15;;;9.60;99.90;;;;;;4990198;28;20042;-75
2023/12/28 05:45:51;;;;;;;7.75;1.98;;;9.60;99.90;;;;;;4990034;28;20074;-76
2023/12/28 05:48:17;;;;;;;4.38;2.22;;;9.60;99.90;;;;;;4991211;28;20092;-75
2023/12/28 05:50:43;;;;;;;11.85;3.38;;;9.60;99.90;;;;;;4996090;28;20046;-75
2023/12/28 05:53:13;;;;;;;10.07;1.75;;;9.60;99.90;;;;;;4997552;28;20480;-75
2023/12/28 05:55:40;;;;;;;17.20;3.38;;;9.60;99.90;;;;;;5007697;28;20436;-75
2023/12/28 05:58:06;;;;;;;8.07;3.08;;;9.60;99.90;;;;;;5009059;28;20388;-75
2023/12/28 06:00:31;;;;;;;12.23;2.95;;;9.60;99.90;;;;;;5025071;28;20113;-75
2023/12/28 06:02:57;;;;;;;13.15;2.28;;;9.60;99.90;;;;;;5001129;28;20481;-75
2023/12/28 06:05:22;;;;;;;8.57;2.20;;;9.70;99.90;;;;;;4993170;28;20042;-76
2023/12/28 06:07:48;;;;;;;6.25;3.15;;;9.70;99.90;;;;;;5041945;28;20488;-75
2023/12/28 06:10:13;;;;;;;11.48;2.83;;;9.70;99.90;;;;;;5040282;28;20033;-76
2023/12/28 06:12:39;;;;;;;9.80;2.08;;;9.70;99.90;;;;;;4992912;28;20133;-75
2023/12/28 06:15:05;;;;;;;4.97;2.42;;;9.70;99.90;;;;;;4989420;28;20539;-75
2023/12/28 06:17:31;;;;;;;6.57;3.00;;;9.80;99.90;;;;;;4974912;28;20270;-75
2023/12/28 06:19:56;;;;;;;6.03;2.13;;;9.80;99.90;;;;;;5029177;28;20189;-76
2023/12/28 06:22:22;;;;;;;9.50;3.10;;;9.80;99.90;;;;;;5002345;28;20038;-75
2023/12/28 06:24:47;;;;;;;5.90;2.60;;;9.80;99.90;;;;;;4973086;28;20156;-75
2023/12/28 06:27:13;;;;;;;13.57;2.53;;;9.80;99.90;;;;;;4971727;28;20034;-75
2023/12/28 06:29:39;;;;;;;4.70;2.08;;;9.80;99.90;;;;;;4988813;28;20120;-76
2023/12/28 06:32:05;;;;;;;5.80;2.03;;;9.80;99.90;;;;;;4991229;28;20140;-75
2023/12/28 06:34:30;;;;;;;8.07;2.65;;;9.70;99.90;;;;;;4998381;28;20042;-75
2023/12/28 06:36:56;;;;;;;5.63;2.40;;;9.70;99.90;;;;;;4988914;28;20555;-75
2023/12/28 06:39:21;;;;;;;8.13;1.73;;;9.70;99.90;;;;;;5005762;28;20041;-75
2023/12/28 06:41:48;;;;;;;4.78;1.52;;;9.70;99.90;;;;;;5008543;28;20117;-76
2023/12/28 06:44:14;;;;;;;11.25;2.63;;;9.70;99.90;;;;;;5008119;28;20042;-75
2023/12/28 06:46:40;;;;;;;7.07;1.90;;;9.70;99.90;;;;;;5040607;28;20053;-75
2023/12/28 06:49:06;;;;;;;5.05;2.63;;;9.70;99.90;;;;;;5005771;28;20053;-75
2023/12/28 06:51:32;;;;;;;5.20;1.90;;;9.70;99.90;;;;;;5005001;28;20081;-75
2023/12/28 06:53:58;;;;;;;14.20;2.60;;;9.70;99.90;;;;;;5001582;28;20042;-75
2023/12/28 06:56:24;;;;;;;7.68;3.08;;;9.70;99.90;;;;;;5004886;28;20124;-75
2023/12/28 06:58:50;;;;;;;11.43;2.95;;;9.70;99.90;;;;;;5003572;28;20124;-75
2023/12/28 07:01:16;;;;;;;7.80;2.13;;;9.70;99.90;;;;;;5003944;28;20054;-76
2023/12/28 07:03:42;;;;;;;1.90;1.58;;;9.80;99.90;;;;;;4996348;28;20121;-75
2023/12/28 07:06:08;;;;;;;14.10;2.63;;;9.70;99.90;;;;;;4992303;28;20026;-75
2023/12/28 07:08:34;;;;;;;8.00;1.95;;;9.70;99.90;;;;;;5036614;28;20523;-75
2023/12/28 07:10:59;;;;;;;16.60;2.28;;;9.70;99.90;;;;;;4994986;28;20089;-76
2023/12/28 07:13:26;;;;;;;11.15;3.35;;;9.70;99.90;;;;;;5003783;28;20050;-75
2023/12/28 07:15:51;;;;;;;10.88;2.67;;;9.70;99.90;;;;;;5001540;28;20066;-76
2023/12/28 07:18:17;;;;;;;9.75;3.67;;;9.70;99.90;;;;;;4986788;28;20081;-76
2023/12/28 07:20:43;;;;;;;5.68;1.80;;;9.70;99.90;;;;;;4997562;28;20050;-75
2023/12/28 07:23:11;;;;;;;4.55;2.25;;;9.70;99.90;;;;;;4995503;28;20755;-75
2023/12/28 07:25:37;;;;;;;6.15;2.67;;;9.70;99.90;;;;;;5004109;28;20128;-76
2023/12/28 07:28:02;;;;;;;8.90;3.22;;;9.70;99.90;;;;;;4991606;28;20467;-75
2023/12/28 07:30:29;;;;;;;6.47;2.22;;;9.70;99.90;;;;;;4987305;28;20406;-76
2023/12/28 07:32:55;;;;;;;17.13;3.13;;;9.70;99.90;;;;;;4987062;28;20053;-75
2023/12/28 07:35:20;;;;;;;14.00;2.55;;;9.70;99.90;;;;;;4991124;28;20396;-76
2023/12/28 07:37:46;;;;;;;12.05;3.67;;;9.60;99.90;;;;;;4990181;28;20243;-75
2023/12/28 07:40:12;;;;;;;8.70;2.83;;;9.70;99.90;;;;;;4993803;28;20026;-76
2023/12/28 07:42:38;;;;;;;15.13;3.80;;;9.70;99.90;;;;;;4984059;28;20470;-75
2023/12/28 07:45:04;;;;;;;8.60;2.40;;;9.70;99.90;;;;;;4985751;28;20047;-76
2023/12/28 07:47:30;;;;;;;21.73;4.65;;;9.70;99.90;;;;;;4976691;28;20049;-73
2023/12/28 07:49:55;;;;;;;10.80;3.33;;;9.70;99.90;;;;;;5003334;28;20484;-76
2023/12/28 07:52:21;;;;;;;7.45;3.38;;;9.70;99.90;;;;;;5003941;28;20377;-76
2023/12/28 07:54:47;;;;;;;11.52;3.03;;;9.80;99.90;;;;;;4994209;28;20034;-76
2023/12/28 07:57:13;;;;;;;6.05;2.30;;;9.80;99.90;;;;;;4978574;28;20046;-76
2023/12/28 07:59:38;;;;;;;20.85;2.78;;;9.80;99.90;;;;;;4976983;28;20101;-76
2023/12/28 08:02:04;;;;;;;17.13;3.17;;;9.80;99.90;;;;;;4978408;28;20054;-76
2023/12/28 08:04:31;;;;;;;12.98;2.60;;;9.80;99.90;;;;;;4988078;28;20042;-76
2023/12/28 08:06:56;;;;;;;12.95;3.88;;;9.90;99.90;;;;;;5002590;28;20057;-76
2023/12/28 08:09:22;;;;;;;9.93;4.05;;;9.80;99.90;;;;;;5004512;28;20041;-76
2023/12/28 08:11:48;;;;;;;10.57;3.45;;;9.90;99.90;;;;;;5001275;28;20046;-76
2023/12/28 08:14:13;;;;;;;14.30;3.97;;;9.90;99.90;;;;;;4985000;28;20500;-76
2023/12/28 08:16:39;;;;;;;11.90;4.60;;;9.90;99.90;;;;;;4984898;28;20054;-76
2023/12/28 08:19:04;;;;;;;7.68;3.78;;;9.90;99.90;;;;;;4994702;28;20052;-76
2023/12/28 08:21:30;;;;;;;11.82;3.78;;;9.90;99.90;;;;;;4991674;28;20511;-76
2023/12/28 08:23:56;;;;;;;11.27;3.38;;;9.90;99.90;;;;;;4986296;28;20042;-76
2023/12/28 08:26:22;;;;;;;8.93;3.00;;;9.90;99.90;;;;;;5000763;28;20089;-76
2023/12/28 08:28:47;;;;;;;11.93;4.57;;;9.90;99.90;;;;;;5004703;28;20488;-76
2023/12/28 08:31:13;;;;;;;10.80;3.90;;;9.90;99.90;;;;;;5035558;28;20412;-75
2023/12/28 08:33:39;;;;;;;10.75;3.15;;;9.90;99.90;;;;;;4983534;28;20082;-77
2023/12/28 08:36:06;;;;;;;9.05;4.75;;;9.90;99.90;;;;;;4990294;28;20046;-77
2023/12/28 08:38:32;;;;;;;11.02;3.08;;;9.90;99.90;;;;;;4986625;28;20049;-77
2023/12/28 08:40:57;;;;;;;12.95;3.65;;;9.90;99.90;;;;;;4991371;28;20497;-76
2023/12/28 08:43:23;;;;;;;11.27;4.28;;;9.90;99.90;;;;;;5004760;28;20046;-76
2023/12/28 08:45:49;;;;;;;6.75;3.30;;;9.90;99.90;;;;;;4982570;28;20049;-77
2023/12/28 08:48:14;;;;;;;14.75;4.97;;;9.90;99.90;;;;;;4988380;28;20043;-79
2023/12/28 08:50:40;;;;;;;10.43;4.40;;;9.90;99.90;;;;;;5017434;28;20054;-76
2023/12/28 08:53:06;;;;;;;9.82;3.65;;;9.90;99.90;;;;;;4982089;28;20086;-78
2023/12/28 08:55:33;;;;;;;8.10;2.90;;;10.00;99.90;;;;;;4980183;28;20063;-78
2023/12/28 08:57:59;;;;;;;17.08;4.05;;;9.90;99.90;;;;;;4970205;28;20042;-76
2023/12/28 09:00:24;;;;;;;12.57;3.47;;;10.00;99.90;;;;;;4990111;28;20517;-77
2023/12/28 09:02:51;;;;;;;11.73;3.72;;;10.00;99.90;;;;;;4993893;28;20526;-77
2023/12/28 09:05:17;;;;;;;7.70;2.20;;;10.00;99.90;;;;;;4988709;28;20042;-77
2023/12/28 09:07:43;;;;;;;10.73;2.97;;;10.00;99.90;;;;;;4981900;28;20064;-77
2023/12/28 09:10:12;;;;;;;12.43;3.53;;;9.90;99.90;;;;;;4994828;28;20496;-77
2023/12/28 09:12:40;;;;;;;7.30;2.30;;;10.00;99.90;;;;;;4991370;28;20140;-77
2023/12/28 09:15:06;;;;;;;10.38;2.88;;;10.00;99.90;;;;;;4984085;28;20050;-77
2023/12/28 09:17:32;;;;;;;8.05;2.90;;;10.00;99.90;;;;;;4985263;28;20038;-77
2023/12/28 09:19:58;;;;;;;15.68;5.13;;;10.00;99.90;;;;;;4997346;28;20038;-77
2023/12/28 09:22:24;;;;;;;15.23;2.75;;;10.00;99.90;;;;;;5000681;28;20041;-77
2023/12/28 09:24:49;;;;;;;5.88;2.60;;;10.00;99.90;;;;;;4983997;28;20046;-78
2023/12/28 09:27:15;;;;;;;10.25;2.75;;;10.00;99.90;;;;;;5018777;28;20053;-77
2023/12/28 09:29:41;;;;;;;18.77;3.38;;;10.10;99.90;;;;;;4984183;28;20444;-77
2023/12/28 09:32:06;;;;;;;13.68;3.63;;;10.10;99.90;;;;;;4986117;28;20070;-77
2023/12/28 09:34:32;;;;;;;18.50;3.17;;;10.10;99.90;;;;;;5032939;28;20053;-77
2023/12/28 09:36:58;;;;;;;10.15;2.97;;;10.10;99.90;;;;;;4988317;28;20514;-77
2023/12/28 09:39:24;;;;;;;7.82;2.72;;;10.10;99.90;;;;;;4977111;28;20400;-77
2023/12/28 09:42:06;;;;;;;6.85;2.72;;;10.10;99.90;;;;;;4976941;28;20428;-77
2023/12/28 09:44:32;;;;;;;16.67;3.80;;;10.10;99.90;;;;;;5000764;28;20045;-77
2023/12/28 09:46:59;;;;;;;11.95;4.82;;;10.10;99.90;;;;;;4997154;28;20103;-77
2023/12/28 09:49:25;;;;;;;12.20;3.90;;;10.10;99.90;;;;;;4964718;28;20053;-77
2023/12/28 09:51:51;;;;;;;26.70;4.65;;;10.10;99.90;;;;;;4983299;28;20038;-77
2023/12/28 09:54:18;;;;;;;7.28;2.72;;;10.10;99.90;;;;;;5029168;28;20068;-77
2023/12/28 09:56:45;;;;;;;10.00;2.40;;;10.10;99.90;;;;;;4981240;28;20520;-77
2023/12/28 09:59:11;;;;;;;10.15;2.55;;;10.20;99.90;;;;;;4983399;28;20080;-77
2023/12/28 10:01:37;;;;;;;12.35;3.20;;;10.20;99.90;;;;;;4999246;28;20105;-77
2023/12/28 10:04:03;;;;;;;10.30;2.60;;;10.20;99.90;;;;;;5024720;28;20054;-77
2023/12/28 10:06:29;;;;;;;9.90;2.63;;;10.20;99.90;;;;;;4982898;28;20057;-77
2023/12/28 10:08:55;;;;;;;10.05;3.25;;;10.20;99.90;;;;;;4977933;28;20409;-75
2023/12/28 10:11:21;;;;;;;7.20;2.15;;;10.20;99.90;;;;;;4981502;28;20046;-77
2023/12/28 10:13:49;;;;;;;10.75;3.35;;;10.20;99.90;;;;;;4981309;28;20057;-77
2023/12/28 10:16:16;;;;;;;17.13;3.38;;;10.20;99.90;;;;;;4991545;28;20070;-77
2023/12/28 10:18:43;;;;;;;8.65;3.42;;;10.20;99.90;;;;;;4995767;28;20040;-77
2023/12/28 10:21:09;;;;;;;8.65;2.42;;;10.30;99.90;;;;;;4984673;28;20049;-77
2023/12/28 10:23:35;;;;;;;9.73;2.63;;;10.30;99.90;;;;;;4983883;28;20046;-77
2023/12/28 10:26:00;;;;;;;8.35;2.65;;;10.30;99.90;;;;;;4971667;28;20053;-77
2023/12/28 10:28:26;;;;;;;11.85;2.67;;;10.30;99.90;;;;;;4984628;28;20221;-77
2023/12/28 10:30:58;;;;;;;9.70;3.05;;;10.30;99.90;;;;;;4996594;28;20034;-77
2023/12/28 10:33:24;;;;;;;;;;;10.30;99.90;;;;;;4986624;28;20057;-76
2023/12/28 10:35:51;;;;;;;8.13;2.42;;;10.30;99.90;;;;;;4986369;28;19921;-77
2023/12/28 10:38:17;;;;;;;10.68;3.80;;;10.30;99.90;;;;;;4987398;28;20585;-77
2023/12/28 10:40:45;;;;;;;16.27;3.10;;;10.30;99.90;;;;;;4986425;28;20038;-76
2023/12/28 10:43:15;;;;;;;12.65;3.58;;;10.30;99.90;;;;;;4985823;28;20046;-75
2023/12/28 10:45:43;;;;;;;17.02;4.40;;;10.30;99.90;;;;;;4966758;28;20086;-78
2023/12/28 10:48:11;;;;;;;8.43;2.50;;;10.40;99.90;;;;;;4983322;28;20502;-76
2023/12/28 10:50:40;;;;;;;27.73;3.63;;;10.40;99.90;;;;;;4976752;28;20106;-77
2023/12/28 10:53:44;;;;;;;10.35;3.10;;;10.40;99.90;;;;;;4984476;28;20213;-76
2023/12/28 10:56:16;;;;;;;7.47;2.35;;;10.40;99.90;;;;;;4974127;28;20508;-76
2023/12/28 10:58:52;;;;;;;14.45;3.15;;;10.40;99.90;;;;;;4982571;28;20034;-76
2023/12/28 11:01:28;;;;;;;4.15;2.10;;;10.40;99.90;;;;;;4985723;28;20066;-76
2023/12/28 11:04:21;;;;;;;8.07;2.30;;;10.40;99.90;;;;;;5012099;28;20081;-77
2023/12/28 11:06:47;;;;;;;7.72;3.17;;;10.40;99.90;;;;;;4983970;28;20140;-77
2023/12/28 11:09:15;;;;;;;17.00;4.18;;;10.40;99.90;;;;;;4965643;28;20048;-77
2023/12/28 11:11:43;;;;;;;8.82;3.60;;;10.40;99.90;;;;;;4978201;28;20049;-77
2023/12/28 11:14:09;;;;;;;10.45;2.33;;;10.50;99.90;;;;;;4979555;28;20333;-77
2023/12/28 11:16:37;;;;;;;8.73;2.38;;;10.50;99.90;;;;;;4985694;28;20126;-77
2023/12/28 11:19:03;;;;;;;8.80;2.28;;;10.50;99.90;;;;;;4996346;28;20074;-76
2023/12/28 11:21:30;;;;;;;8.55;2.63;;;10.50;99.90;;;;;;4995131;28;20400;-76
2023/12/28 11:23:57;;;;;;;9.25;2.45;;;10.50;99.90;;;;;;4990906;28;20125;-77
2023/12/28 11:26:23;;;;;;;15.50;5.07;;;10.50;99.90;;;;;;4986354;28;20077;-76
2023/12/28 11:28:49;;;;;;;18.13;3.15;;;10.50;99.90;;;;;;4985960;28;20050;-75
2023/12/28 11:31:18;;;;;;;6.35;2.70;;;10.50;99.90;;;;;;4975497;28;20035;-75
2023/12/28 11:33:53;;;;;;;6.07;3.15;;;10.50;99.90;;;;;;5013642;28;20544;-75
2023/12/28 11:36:26;;;;;;;8.55;4.10;;;10.50;99.90;;;;;;4988352;28;20042;-78
2023/12/28 11:38:58;;;;;;;11.02;3.15;;;10.50;99.90;;;;;;4984183;28;20074;-77
2023/12/28 11:41:25;;;;;;;8.43;3.28;;;10.50;99.90;;;;;;4985651;28;20034;-77
2023/12/28 11:43:54;;;;;;;12.23;1.90;;;10.50;99.90;;;;;;4986072;28;20539;-77
2023/12/28 11:46:23;;;;;;;6.60;2.05;;;10.50;99.90;;;;;;5000135;28;20092;-78
2023/12/28 11:48:49;;;;;;;23.30;4.18;;;10.50;99.90;;;;;;4994170;28;20153;-75
2023/12/28 11:51:14;;;;;;;8.75;2.47;;;10.50;99.90;;;;;;4989171;28;20125;-76
2023/12/28 11:53:42;;;;;;;11.18;3.30;;;10.50;99.90;;;;;;4973958;28;20046;-76
2023/12/28 11:56:10;;;;;;;10.30;3.58;;;10.50;99.90;;;;;;4975057;28;20137;-75
2023/12/28 11:58:36;;;;;;;10.23;2.22;;;10.50;99.90;;;;;;4986112;28;20112;-76
2023/12/28 12:01:02;;;;;;;12.55;2.90;;;10.50;99.90;;;;;;4985675;28;20050;-76
2023/12/28 12:03:29;;;;;;;8.63;2.17;;;10.50;99.90;;;;;;4985105;28;20722;-76
2023/12/28 12:05:57;;;;;;;11.02;2.50;;;10.50;99.90;;;;;;4973866;28;20049;-76
2023/12/28 12:08:22;;;;;;;8.07;3.20;;;10.50;99.90;;;;;;5020973;28;20133;-76
2023/12/28 12:10:48;;;;;;;12.38;3.40;;;10.50;99.90;;;;;;4988878;28;20225;-76
2023/12/28 12:13:14;;;;;;;20.60;3.53;;;10.50;99.90;;;;;;4995229;28;20109;-76
2023/12/28 12:15:40;;;;;;;8.70;3.30;;;10.50;99.90;;;;;;4966957;28;20050;-75
2023/12/28 12:18:06;;;;;;;9.43;2.92;;;10.50;99.90;;;;;;5002995;28;20547;-74
2023/12/28 12:20:32;;;;;;;9.07;2.58;;;10.50;99.90;;;;;;4996377;28;20038;-75
2023/12/28 12:23:00;;;;;;;14.07;3.70;;;10.50;99.90;;;;;;4984119;28;20054;-76
2023/12/28 12:25:28;;;;;;;13.43;3.22;;;10.50;99.90;;;;;;4985425;28;20030;-76
2023/12/28 12:27:53;;;;;;;7.10;2.20;;;10.40;99.90;;;;;;4978066;28;20058;-76
2023/12/28 12:30:19;;;;;;;11.02;3.47;;;10.40;99.90;;;;;;4965507;28;20493;-75
2023/12/28 12:32:45;;;;;;;10.95;2.47;;;10.50;99.90;;;;;;5035027;28;20042;-75
2023/12/28 12:35:11;;;;;;;18.70;4.15;;;10.50;99.90;;;;;;4984085;28;20046;-75
2023/12/28 12:37:37;;;;;;;6.53;3.00;;;10.50;99.90;;;;;;4998999;28;20053;-76
2023/12/28 12:40:05;;;;;;;8.52;2.25;;;10.50;99.90;;;;;;4988350;28;20054;-77
2023/12/28 12:42:34;;;;;;;10.50;2.50;;;10.50;99.90;;;;;;4974506;28;20548;-76
2023/12/28 12:45:00;;;;;;;8.93;3.08;;;10.50;99.90;;;;;;4977989;28;20042;-76
2023/12/28 12:47:32;;;;;;;6.03;2.00;;;10.50;99.90;;;;;;4983276;28;20465;-75